Time;durP1;ratioP1;P1;durP2;ratioP2;P2;SDS_P1;SDS_P2;PMS_P1;PMS_P2;Temp;Humidity;BMP_temperature;BMP_pressure;BME280_temperature;BME280_humidity;BME280_pressure;Samples;Min_cycle;Max_cycle;Signal;HPM_P1;HPM_P2
2021/01/01 00:00:37;;;;;;;38.83;22.87;;;3.40;99.90;;;;;;5074076;28;20213;-75
2021/01/01 00:03:03;;;;;;;38.27;23.30;;;3.40;99.90;;;;;;5067846;28;20297;-76
2021/01/01 00:05:30;;;;;;;42.27;24.17;;;3.40;99.90;;;;;;5069487;28;20221;-75
2021/01/01 00:07:56;;;;;;;36.60;23.63;;;3.40;99.90;;;;;;5073067;28;20212;-75
2021/01/01 00:10:24;;;;;;;39.97;24.13;;;3.40;99.90;;;;;;5071356;28;20645;-76
2021/01/01 00:12:50;;;;;;;41.27;24.80;;;3.40;99.90;;;;;;5070873;28;20655;-75
2021/01/01 00:15:17;;;;;;;42.73;25.33;;;3.40;99.90;;;;;;5069952;28;20658;-76
2021/01/01 00:17:44;;;;;;;42.33;24.43;;;3.40;99.90;;;;;;5070141;28;20206;-75
2021/01/01 00:20:11;;;;;;;40.93;24.33;;;3.40;99.90;;;;;;5070031;28;20248;-75
2021/01/01 00:22:41;;;;;;;41.60;23.77;;;3.40;99.90;;;;;;5069221;28;20205;-76
2021/01/01 00:25:10;;;;;;;37.20;22.90;;;3.30;99.90;;;;;;5071428;28;20733;-77
2021/01/01 00:27:38;;;;;;;36.87;21.93;;;3.30;99.90;;;;;;5072110;28;20205;-77
2021/01/01 00:30:05;;;;;;;39.90;23.50;;;3.30;99.90;;;;;;5071848;28;20727;-76
2021/01/01 00:32:32;;;;;;;41.90;23.73;;;3.20;99.90;;;;;;5069107;28;20205;-76
2021/01/01 00:34:59;;;;;;;45.03;26.00;;;3.20;99.90;;;;;;5066969;28;20201;-76
2021/01/01 00:37:27;;;;;;;40.53;25.73;;;3.20;99.90;;;;;;5072445;28;20235;-75
2021/01/01 00:39:53;;;;;;;44.43;24.70;;;3.20;99.90;;;;;;5066305;28;20232;-75
2021/01/01 00:42:20;;;;;;;45.20;26.47;;;3.20;99.90;;;;;;5063996;28;20255;-75
2021/01/01 00:44:47;;;;;;;44.17;24.83;;;3.10;99.90;;;;;;5069431;28;20642;-75
2021/01/01 00:47:13;;;;;;;40.83;23.90;;;3.10;99.90;;;;;;5072566;28;20585;-75
2021/01/01 00:49:40;;;;;;;44.80;25.23;;;3.10;99.90;;;;;;5071937;28;20725;-74
2021/01/01 00:52:07;;;;;;;47.73;26.30;;;3.00;99.90;;;;;;5069089;28;20205;-75
2021/01/01 00:54:34;;;;;;;53.23;27.77;;;3.10;99.90;;;;;;5071689;28;20336;-74
2021/01/01 00:57:01;;;;;;;48.53;27.87;;;3.10;99.90;;;;;;5068828;28;20294;-75
2021/01/01 00:59:28;;;;;;;50.90;27.33;;;3.10;99.90;;;;;;5071463;28;20615;-74
2021/01/01 01:01:55;;;;;;;44.30;25.57;;;3.10;99.90;;;;;;5071415;28;20205;-74
2021/01/01 01:04:21;;;;;;;41.13;25.30;;;3.10;99.90;;;;;;5069048;28;20561;-74
2021/01/01 01:06:48;;;;;;;48.77;24.93;;;3.10;99.90;;;;;;5071206;28;20674;-75
2021/01/01 01:09:14;;;;;;;44.83;24.97;;;3.10;99.90;;;;;;5070969;28;20743;-74
2021/01/01 01:11:41;;;;;;;48.50;27.53;;;3.10;99.90;;;;;;5068233;28;20264;-75
2021/01/01 01:14:07;;;;;;;54.27;28.13;;;3.10;99.90;;;;;;5068397;28;20285;-74
2021/01/01 01:16:33;;;;;;;48.47;27.03;;;3.10;99.90;;;;;;5070946;28;20244;-75
2021/01/01 01:19:01;;;;;;;45.87;25.33;;;3.10;99.90;;;;;;5071049;28;20296;-75
2021/01/01 01:21:29;;;;;;;46.47;25.93;;;3.10;99.90;;;;;;5071442;28;20731;-76
2021/01/01 01:23:56;;;;;;;49.10;28.23;;;3.20;99.90;;;;;;5071540;28;20205;-76
2021/01/01 01:26:23;;;;;;;45.50;28.43;;;3.20;99.90;;;;;;5070028;28;20588;-75
2021/01/01 01:28:53;;;;;;;52.37;30.27;;;3.20;99.90;;;;;;5071525;28;20232;-75
2021/01/01 01:31:20;;;;;;;52.83;30.57;;;3.10;99.90;;;;;;5073766;28;20205;-77
2021/01/01 01:33:46;;;;;;;52.03;28.50;;;3.10;99.90;;;;;;5075879;28;20197;-75
2021/01/01 01:36:14;;;;;;;57.73;31.83;;;3.20;99.90;;;;;;5075688;28;20656;-76
2021/01/01 01:38:41;;;;;;;54.27;31.80;;;3.20;99.90;;;;;;5075951;28;20299;-77
2021/01/01 01:41:07;;;;;;;54.67;31.20;;;3.20;99.90;;;;;;5075435;28;20244;-75
2021/01/01 01:43:35;;;;;;;54.57;30.17;;;3.20;99.90;;;;;;5077688;28;20201;-75
2021/01/01 01:46:02;;;;;;;50.80;28.60;;;3.20;99.90;;;;;;5072575;28;20255;-74
2021/01/01 01:48:32;;;;;;;53.93;28.97;;;3.10;99.90;;;;;;5076279;28;20253;-75
2021/01/01 01:50:59;;;;;;;54.63;29.63;;;3.10;99.90;;;;;;5075824;28;20669;-76
2021/01/01 01:53:30;;;;;;;49.30;29.07;;;3.10;99.90;;;;;;5072796;28;20237;-75
2021/01/01 01:55:57;;;;;;;54.10;27.70;;;3.10;99.90;;;;;;5075261;28;20289;-75
2021/01/01 01:58:24;;;;;;;50.93;28.73;;;3.00;99.90;;;;;;5072105;28;20243;-76
2021/01/01 02:01:00;;;;;;;50.90;26.20;;;3.00;99.90;;;;;;5076279;28;20702;-76
2021/01/01 02:03:27;;;;;;;52.40;29.60;;;3.00;99.90;;;;;;5073091;28;20658;-75
2021/01/01 02:05:54;;;;;;;52.43;30.43;;;2.90;99.90;;;;;;5072460;28;20263;-75
2021/01/01 02:08:21;;;;;;;54.90;29.80;;;2.90;99.90;;;;;;5074506;28;20206;-75
2021/01/01 02:10:53;;;;;;;53.60;31.60;;;2.90;99.90;;;;;;5069480;28;20229;-76
2021/01/01 02:13:21;;;;;;;56.77;30.70;;;2.90;99.90;;;;;;5074652;28;20198;-75
2021/01/01 02:15:48;;;;;;;54.17;31.60;;;2.90;99.90;;;;;;5073813;28;20224;-76
2021/01/01 02:18:33;;;;;;;56.63;31.40;;;3.00;99.90;;;;;;5074413;28;20202;-75
2021/01/01 02:20:59;;;;;;;52.00;30.07;;;3.10;99.90;;;;;;5074958;28;20297;-75
2021/01/01 02:23:27;;;;;;;56.07;31.03;;;3.10;99.90;;;;;;5072757;28;20319;-77
2021/01/01 02:25:53;;;;;;;66.23;33.27;;;3.10;99.90;;;;;;5073913;28;20663;-76
2021/01/01 02:28:20;;;;;;;53.37;31.83;;;3.10;99.90;;;;;;5072824;28;20666;-76
2021/01/01 02:30:46;;;;;;;57.00;31.93;;;3.20;99.90;;;;;;5073920;28;20197;-76
2021/01/01 02:33:14;;;;;;;57.67;34.30;;;3.20;99.90;;;;;;5073665;28;20231;-76
2021/01/01 02:35:40;;;;;;;57.87;34.40;;;3.10;99.90;;;;;;5076419;28;20292;-76
2021/01/01 02:38:08;;;;;;;62.97;34.00;;;3.10;99.90;;;;;;5074464;28;20714;-75
2021/01/01 02:40:37;;;;;;;60.37;34.57;;;3.20;99.90;;;;;;5071287;28;20266;-75
2021/01/01 02:43:04;;;;;;;64.63;35.23;;;3.10;99.90;;;;;;5069780;28;20201;-75
2021/01/01 02:45:31;;;;;;;60.07;33.40;;;3.10;99.90;;;;;;5073845;28;20209;-75
2021/01/01 02:47:59;;;;;;;56.70;32.80;;;3.10;99.90;;;;;;5073786;28;20810;-75
2021/01/01 02:50:25;;;;;;;68.83;34.73;;;3.10;99.90;;;;;;5073834;28;20201;-74
2021/01/01 02:52:52;;;;;;;56.60;32.23;;;3.10;99.90;;;;;;5073605;28;20240;-75
2021/01/01 02:55:18;;;;;;;58.27;31.60;;;3.10;99.90;;;;;;5071525;28;20298;-75
2021/01/01 02:57:46;;;;;;;56.03;30.97;;;3.10;99.90;;;;;;5072542;28;20205;-75
2021/01/01 03:00:14;;;;;;;59.53;32.80;;;3.10;99.90;;;;;;5070778;28;20205;-75
2021/01/01 03:02:41;;;;;;;57.77;30.77;;;3.10;99.90;;;;;;5069416;28;20682;-76
2021/01/01 03:05:08;;;;;;;60.13;32.83;;;3.10;99.90;;;;;;5073324;28;20269;-76
2021/01/01 03:07:34;;;;;;;50.33;28.90;;;3.10;99.90;;;;;;5070790;28;20325;-75
2021/01/01 03:10:01;;;;;;;57.60;31.33;;;3.10;99.90;;;;;;5071016;28;20301;-74
2021/01/01 03:12:27;;;;;;;51.33;28.27;;;3.00;99.90;;;;;;5068648;28;20308;-75
2021/01/01 03:14:54;;;;;;;47.03;26.87;;;3.10;99.90;;;;;;5073356;28;20308;-75
2021/01/01 03:17:21;;;;;;;46.30;26.30;;;3.10;99.90;;;;;;5073214;28;20292;-76
2021/01/01 03:19:47;;;;;;;45.37;25.33;;;3.10;99.90;;;;;;5072732;28;20444;-74
2021/01/01 03:22:13;;;;;;;44.40;24.73;;;3.10;99.90;;;;;;5071568;28;20287;-73
2021/01/01 03:24:40;;;;;;;44.33;25.33;;;3.00;99.90;;;;;;5071121;28;20239;-75
2021/01/01 03:27:07;;;;;;;49.03;27.43;;;3.00;99.90;;;;;;5072795;28;20304;-76
2021/01/01 03:29:33;;;;;;;47.87;27.87;;;2.90;99.90;;;;;;5073273;28;20224;-76
2021/01/01 03:32:00;;;;;;;47.47;29.20;;;2.90;99.90;;;;;;5070931;28;20288;-77
2021/01/01 03:34:27;;;;;;;52.47;29.23;;;3.00;99.90;;;;;;5072580;28;20212;-76
2021/01/01 03:36:54;;;;;;;50.23;27.50;;;2.90;99.90;;;;;;5073702;28;20213;-75
2021/01/01 03:39:21;;;;;;;50.43;27.37;;;3.00;99.90;;;;;;5065145;28;20210;-76
2021/01/01 03:41:47;;;;;;;45.13;26.37;;;3.00;99.90;;;;;;5070455;28;20346;-75
2021/01/01 03:44:14;;;;;;;54.33;28.57;;;3.00;99.90;;;;;;5072248;28;20681;-76
2021/01/01 03:46:40;;;;;;;50.53;26.93;;;3.00;99.90;;;;;;5070228;28;20612;-75
2021/01/01 03:49:09;;;;;;;46.77;27.73;;;3.10;99.90;;;;;;5069117;28;20214;-74
2021/01/01 03:51:36;;;;;;;45.33;26.47;;;3.20;99.90;;;;;;5067122;28;20241;-75
2021/01/01 03:54:02;;;;;;;49.97;26.60;;;3.10;99.90;;;;;;5066057;28;20292;-75
2021/01/01 03:56:29;;;;;;;41.27;25.23;;;3.10;99.90;;;;;;5069758;28;20324;-76
2021/01/01 03:58:55;;;;;;;45.67;26.90;;;3.10;99.90;;;;;;5071691;28;20661;-75
2021/01/01 04:01:22;;;;;;;45.10;26.40;;;3.10;99.90;;;;;;5072168;28;20292;-76
2021/01/01 04:03:48;;;;;;;43.03;25.00;;;3.00;99.90;;;;;;5067894;28;20213;-75
2021/01/01 04:06:15;;;;;;;45.70;25.63;;;3.10;99.90;;;;;;5072024;28;20224;-75
2021/01/01 04:08:42;;;;;;;45.33;24.77;;;3.10;99.90;;;;;;5070025;28;20243;-75
2021/01/01 04:11:08;;;;;;;47.70;26.23;;;3.10;99.90;;;;;;5069234;28;20260;-75
2021/01/01 04:13:37;;;;;;;46.03;25.07;;;3.10;99.90;;;;;;5069711;28;20312;-74
2021/01/01 04:16:04;;;;;;;43.97;26.00;;;3.10;99.90;;;;;;5069737;28;20410;-75
2021/01/01 04:18:31;;;;;;;45.17;25.73;;;3.10;99.90;;;;;;5072104;28;20292;-74
2021/01/01 04:20:57;;;;;;;45.30;25.07;;;3.10;99.90;;;;;;5070021;28;20206;-75
2021/01/01 04:23:24;;;;;;;44.77;24.77;;;3.10;99.90;;;;;;5070235;28;20308;-76
2021/01/01 04:25:51;;;;;;;44.97;25.27;;;3.10;99.90;;;;;;5067924;28;20234;-75
2021/01/01 04:28:17;;;;;;;43.70;23.20;;;3.00;99.90;;;;;;5072502;28;20240;-75
2021/01/01 04:30:43;;;;;;;43.33;24.97;;;3.00;99.90;;;;;;5069334;28;20297;-75
2021/01/01 04:33:10;;;;;;;41.10;24.03;;;3.00;99.90;;;;;;5072101;28;20201;-75
2021/01/01 04:35:37;;;;;;;43.50;24.50;;;3.00;99.90;;;;;;5072820;28;20296;-75
2021/01/01 04:38:05;;;;;;;45.30;24.43;;;2.90;99.90;;;;;;5070106;28;20637;-74
2021/01/01 04:40:33;;;;;;;47.50;25.37;;;2.90;99.90;;;;;;5072775;28;20201;-74
2021/01/01 04:43:00;;;;;;;37.17;23.13;;;2.90;99.90;;;;;;5070129;28;20540;-75
2021/01/01 04:45:27;;;;;;;36.70;21.47;;;2.90;99.90;;;;;;5071158;28;20240;-76
2021/01/01 04:47:53;;;;;;;40.07;21.70;;;2.90;99.90;;;;;;5072197;28;20227;-74
2021/01/01 04:50:20;;;;;;;40.80;23.13;;;2.90;99.90;;;;;;5074544;28;20280;-75
2021/01/01 04:52:49;;;;;;;41.13;22.23;;;2.90;99.90;;;;;;5069654;28;20205;-74
2021/01/01 04:55:17;;;;;;;37.83;21.00;;;3.00;99.90;;;;;;5069047;28;20677;-74
2021/01/01 04:57:44;;;;;;;43.67;22.90;;;2.90;99.90;;;;;;5069826;28;20707;-75
2021/01/01 05:00:11;;;;;;;39.97;21.63;;;2.90;99.90;;;;;;5071436;28;20229;-76
2021/01/01 05:02:38;;;;;;;42.63;22.50;;;2.90;99.90;;;;;;5071435;28;20232;-75
2021/01/01 05:05:05;;;;;;;39.30;21.33;;;2.80;99.90;;;;;;5069302;28;20292;-74
2021/01/01 05:07:32;;;;;;;42.00;21.67;;;2.70;99.90;;;;;;5071047;28;20239;-75
2021/01/01 05:09:59;;;;;;;41.20;21.43;;;2.70;99.90;;;;;;5070673;28;20229;-74
2021/01/01 05:12:31;;;;;;;39.60;22.03;;;2.60;99.90;;;;;;5071183;28;20256;-75
2021/01/01 05:14:59;;;;;;;40.13;21.80;;;2.50;99.90;;;;;;5068590;28;20204;-76
2021/01/01 05:17:35;;;;;;;38.63;21.27;;;2.50;99.90;;;;;;5068490;28;20236;-76
2021/01/01 05:20:07;;;;;;;38.13;21.80;;;2.40;99.90;;;;;;5071967;28;20563;-74
2021/01/01 05:22:33;;;;;;;41.03;22.00;;;2.40;99.90;;;;;;5066867;28;20209;-75
2021/01/01 05:25:03;;;;;;;39.23;20.83;;;2.40;99.90;;;;;;5070604;28;20682;-75
2021/01/01 05:27:34;;;;;;;39.77;22.13;;;2.40;99.90;;;;;;5067691;28;20271;-75
2021/01/01 05:30:02;;;;;;;39.50;21.57;;;2.40;99.90;;;;;;5068325;28;20193;-75
2021/01/01 05:32:30;;;;;;;42.27;23.23;;;2.40;99.90;;;;;;5069904;28;20201;-74
2021/01/01 05:34:57;;;;;;;43.70;23.00;;;2.50;99.90;;;;;;5067522;28;20832;-75
2021/01/01 05:37:32;;;;;;;41.07;21.60;;;2.50;99.90;;;;;;5071649;28;20299;-75
2021/01/01 05:40:06;;;;;;;42.17;22.80;;;2.60;99.90;;;;;;5071736;28;20228;-73
2021/01/01 05:42:33;;;;;;;44.80;23.13;;;2.60;99.90;;;;;;5071100;28;20236;-74
2021/01/01 05:45:13;;;;;;;39.73;23.47;;;2.70;99.90;;;;;;5071079;28;20206;-74
2021/01/01 05:47:40;;;;;;;38.33;23.33;;;2.60;99.90;;;;;;5070549;28;20217;-74
2021/01/01 05:50:08;;;;;;;43.30;23.50;;;2.70;99.90;;;;;;5070869;28;20225;-74
2021/01/01 05:52:35;;;;;;;39.20;21.20;;;2.70;99.90;;;;;;5068458;28;20207;-73
2021/01/01 05:55:03;;;;;;;37.87;22.37;;;2.80;99.90;;;;;;5067686;28;20332;-73
2021/01/01 05:57:36;;;;;;;41.17;21.97;;;2.80;99.90;;;;;;5071830;28;20284;-73
2021/01/01 06:00:06;;;;;;;38.50;21.07;;;2.80;99.90;;;;;;5069202;28;20320;-73
2021/01/01 06:02:37;;;;;;;37.47;20.53;;;2.80;99.90;;;;;;5072415;28;20232;-74
2021/01/01 06:05:07;;;;;;;42.63;22.33;;;2.80;99.90;;;;;;5069531;28;20206;-75
2021/01/01 06:07:37;;;;;;;40.00;21.53;;;2.70;99.90;;;;;;5070878;28;20592;-75
2021/01/01 06:10:05;;;;;;;35.80;20.23;;;2.70;99.90;;;;;;5070446;28;20324;-74
2021/01/01 06:12:36;;;;;;;40.57;22.73;;;2.70;99.90;;;;;;5071419;28;20221;-75
2021/01/01 06:15:05;;;;;;;44.40;22.67;;;2.70;99.90;;;;;;5070297;28;20200;-74
2021/01/01 06:17:48;;;;;;;40.80;21.53;;;2.70;99.90;;;;;;5073346;28;20205;-75
2021/01/01 06:20:19;;;;;;;39.47;22.93;;;2.70;99.90;;;;;;5072914;28;20215;-75
2021/01/01 06:23:00;;;;;;;43.23;24.87;;;2.70;99.90;;;;;;5070645;28;20665;-75
2021/01/01 06:25:28;;;;;;;41.47;23.20;;;2.70;99.90;;;;;;5074379;28;20719;-75
2021/01/01 06:27:54;;;;;;;40.97;23.07;;;2.70;99.90;;;;;;5071924;28;20229;-75
2021/01/01 06:30:23;;;;;;;41.93;22.50;;;2.70;99.90;;;;;;5074224;28;20216;-75
2021/01/01 06:32:52;;;;;;;42.43;22.93;;;2.70;99.90;;;;;;5075216;28;20209;-76
2021/01/01 06:35:20;;;;;;;41.50;23.07;;;2.70;99.90;;;;;;5074103;28;20213;-75
2021/01/01 06:37:48;;;;;;;40.97;23.77;;;2.70;99.90;;;;;;5074583;28;20205;-76
2021/01/01 06:40:33;;;;;;;43.30;24.27;;;2.70;99.90;;;;;;5072513;28;20300;-75
2021/01/01 06:43:01;;;;;;;44.00;23.77;;;2.80;99.90;;;;;;5073928;28;20205;-74
2021/01/01 06:45:45;;;;;;;47.33;25.60;;;2.80;99.90;;;;;;5071343;28;20243;-74
2021/01/01 06:48:14;;;;;;;42.57;23.87;;;2.70;99.90;;;;;;5072973;28;20201;-73
2021/01/01 06:50:42;;;;;;;46.17;24.80;;;2.80;99.90;;;;;;5071102;28;20201;-74
2021/01/01 06:53:10;;;;;;;46.23;25.93;;;2.80;99.90;;;;;;5071419;28;20209;-74
2021/01/01 06:55:39;;;;;;;42.67;22.90;;;2.80;99.90;;;;;;5074006;28;20241;-74
2021/01/01 06:58:06;;;;;;;45.23;23.80;;;2.80;99.90;;;;;;5072534;28;20228;-74
2021/01/01 07:00:55;;;;;;;44.20;23.57;;;2.80;99.90;;;;;;5073370;28;20240;-75
2021/01/01 07:03:39;;;;;;;42.20;24.37;;;2.90;99.90;;;;;;5073849;28;20211;-74
2021/01/01 07:06:40;;;;;;;41.73;24.23;;;2.90;99.90;;;;;;5069864;28;20274;-73
2021/01/01 07:09:12;;;;;;;40.00;23.37;;;2.80;99.90;;;;;;5071408;28;20208;-73
2021/01/01 07:11:43;;;;;;;45.50;25.20;;;2.80;99.90;;;;;;5070901;28;20328;-74
2021/01/01 07:14:11;;;;;;;45.57;25.67;;;2.80;99.90;;;;;;5073031;28;20212;-75
2021/01/01 07:16:40;;;;;;;46.50;23.80;;;2.80;99.90;;;;;;5070073;28;20255;-72
2021/01/01 07:19:08;;;;;;;44.97;24.60;;;2.80;99.90;;;;;;5073391;28;20205;-73
2021/01/01 07:21:34;;;;;;;46.20;25.00;;;2.90;99.90;;;;;;5073174;28;20201;-72
2021/01/01 07:24:01;;;;;;;45.17;26.47;;;2.90;99.90;;;;;;5072738;28;20646;-75
2021/01/01 07:26:30;;;;;;;43.70;24.60;;;2.90;99.90;;;;;;5071729;28;20233;-76
2021/01/01 07:29:00;;;;;;;49.77;26.80;;;2.90;99.90;;;;;;5068895;28;20300;-75
2021/01/01 07:31:28;;;;;;;45.80;25.30;;;2.90;99.90;;;;;;5068165;28;20209;-76
2021/01/01 07:33:55;;;;;;;47.23;26.40;;;2.90;99.90;;;;;;5070233;28;20611;-75
2021/01/01 07:36:22;;;;;;;50.37;26.50;;;3.00;99.90;;;;;;5069958;28;20678;-75
2021/01/01 07:38:50;;;;;;;45.40;27.20;;;3.00;99.90;;;;;;5069337;28;20202;-76
2021/01/01 07:41:18;;;;;;;46.57;26.27;;;3.00;99.90;;;;;;5068252;28;20215;-76
2021/01/01 07:43:44;;;;;;;49.33;27.20;;;3.00;99.90;;;;;;5071734;28;20247;-74
2021/01/01 07:46:11;;;;;;;46.67;26.13;;;3.00;99.90;;;;;;5071561;28;20225;-74
2021/01/01 07:48:38;;;;;;;47.87;26.47;;;3.10;99.90;;;;;;5071848;28;20305;-74
2021/01/01 07:51:06;;;;;;;53.47;26.60;;;3.10;99.90;;;;;;5071878;28;20201;-75
2021/01/01 07:53:34;;;;;;;48.63;27.00;;;3.10;99.90;;;;;;5071179;28;20205;-78
2021/01/01 07:56:02;;;;;;;49.33;27.10;;;3.10;99.90;;;;;;5073444;28;20197;-78
2021/01/01 07:58:30;;;;;;;50.20;27.00;;;3.10;99.90;;;;;;5074859;28;20231;-76
2021/01/01 08:01:03;;;;;;;51.63;27.30;;;3.10;99.90;;;;;;5074966;28;20297;-75
2021/01/01 08:03:31;;;;;;;52.40;27.17;;;3.20;99.90;;;;;;5068736;28;20225;-76
2021/01/01 08:05:58;;;;;;;47.33;27.47;;;3.20;99.90;;;;;;5074325;28;20263;-77
2021/01/01 08:08:27;;;;;;;49.77;28.57;;;3.20;99.90;;;;;;5064004;28;20289;-82
2021/01/01 08:10:56;;;;;;;50.00;28.10;;;3.30;99.90;;;;;;5084057;28;20731;-81
2021/01/01 08:13:24;;;;;;;48.47;27.80;;;3.30;99.90;;;;;;5084270;28;20557;-81
2021/01/01 08:15:52;;;;;;;49.80;26.73;;;3.40;99.90;;;;;;5083985;28;20209;-83
2021/01/01 08:18:20;;;;;;;48.03;27.83;;;4.00;99.90;;;;;;5077101;28;20214;-79
2021/01/01 08:20:47;;;;;;;47.00;27.33;;;3.40;99.90;;;;;;5080595;28;20568;-80
2021/01/01 08:23:17;;;;;;;51.00;27.70;;;3.40;99.90;;;;;;5080671;28;20544;-79
2021/01/01 08:25:49;;;;;;;53.07;28.33;;;3.40;99.90;;;;;;5076001;28;20292;-79
2021/01/01 08:28:19;;;;;;;50.43;28.23;;;3.30;99.90;;;;;;5070975;28;20221;-80
2021/01/01 08:30:52;;;;;;;61.73;28.70;;;3.30;99.90;;;;;;5083554;28;20659;-82
2021/01/01 08:33:19;;;;;;;51.43;29.07;;;3.30;99.90;;;;;;5080476;28;20206;-79
2021/01/01 08:35:46;;;;;;;53.57;30.50;;;3.20;99.90;;;;;;5085391;28;20201;-81
2021/01/01 08:38:17;;;;;;;53.50;30.60;;;3.20;99.90;;;;;;5092917;28;20201;-79
2021/01/01 08:40:44;;;;;;;51.40;28.03;;;3.20;99.90;;;;;;5080481;28;20277;-82
2021/01/01 08:43:11;;;;;;;55.80;28.83;;;3.20;99.90;;;;;;5083957;28;20658;-80
2021/01/01 08:45:39;;;;;;;47.27;27.23;;;3.20;99.90;;;;;;5079608;28;20239;-80
2021/01/01 08:48:12;;;;;;;54.03;27.30;;;3.20;99.90;;;;;;5080220;28;20307;-78
2021/01/01 08:50:50;;;;;;;53.67;28.53;;;3.30;99.90;;;;;;5074607;28;20262;-78
2021/01/01 08:53:17;;;;;;;53.57;28.63;;;3.20;99.90;;;;;;5075122;28;20236;-78
2021/01/01 08:55:43;;;;;;;53.27;27.23;;;3.20;99.90;;;;;;5076018;28;20268;-78
2021/01/01 08:58:12;;;;;;;53.53;27.93;;;3.10;99.90;;;;;;5075176;28;20209;-77
2021/01/01 09:00:40;;;;;;;49.80;27.13;;;3.10;99.90;;;;;;5073704;28;20197;-77
2021/01/01 09:03:08;;;;;;;51.60;28.67;;;3.00;99.90;;;;;;5073026;28;20205;-75
2021/01/01 09:05:35;;;;;;;55.90;28.60;;;3.00;99.90;;;;;;5069493;28;20228;-75
2021/01/01 09:08:09;;;;;;;50.67;28.67;;;2.90;99.90;;;;;;5073004;28;20525;-76
2021/01/01 09:10:40;;;;;;;49.13;27.57;;;2.90;99.90;;;;;;5077284;28;20244;-80
2021/01/01 09:13:15;;;;;;;55.73;27.80;;;2.90;99.90;;;;;;5083969;28;20229;-81
2021/01/01 09:15:43;;;;;;;51.00;27.43;;;2.80;99.90;;;;;;5083783;28;20264;-81
2021/01/01 09:18:10;;;;;;;51.93;26.80;;;3.00;99.90;;;;;;5082157;28;20205;-78
2021/01/01 09:20:40;;;;;;;53.83;26.57;;;2.80;99.90;;;;;;5065487;28;20205;-75
2021/01/01 09:23:07;;;;;;;48.10;27.53;;;2.80;99.90;;;;;;5071453;28;20296;-76
2021/01/01 09:25:34;;;;;;;49.93;26.27;;;2.70;99.90;;;;;;5070837;28;20664;-77
2021/01/01 09:28:03;;;;;;;52.83;27.30;;;2.70;99.90;;;;;;5072048;28;20693;-76
2021/01/01 09:30:32;;;;;;;48.63;25.70;;;2.70;99.90;;;;;;5059336;28;20217;-76
2021/01/01 09:33:00;;;;;;;49.57;25.90;;;2.60;99.90;;;;;;5072656;28;20216;-77
2021/01/01 09:35:29;;;;;;;47.60;25.77;;;2.70;99.90;;;;;;5070056;28;20683;-77
2021/01/01 09:37:58;;;;;;;47.67;25.37;;;2.60;99.90;;;;;;5075789;28;20209;-77
2021/01/01 09:40:26;;;;;;;51.03;25.63;;;2.70;99.90;;;;;;5072876;28;20232;-74
2021/01/01 09:42:53;;;;;;;52.07;26.77;;;2.60;99.90;;;;;;5073085;28;20220;-77
2021/01/01 09:45:19;;;;;;;51.77;25.77;;;2.60;99.90;;;;;;5072858;28;20283;-77
2021/01/01 09:47:47;;;;;;;45.63;24.13;;;2.60;99.90;;;;;;5072716;28;20680;-73
2021/01/01 09:50:17;;;;;;;42.50;23.00;;;2.60;99.90;;;;;;5079942;28;20212;-79
2021/01/01 09:52:43;;;;;;;45.73;25.10;;;2.60;99.90;;;;;;5067513;28;20265;-73
2021/01/01 09:55:11;;;;;;;48.97;24.80;;;2.60;99.90;;;;;;5077717;28;20612;-76
2021/01/01 09:57:38;;;;;;;46.57;25.70;;;2.60;99.90;;;;;;5075018;28;20212;-77
2021/01/01 10:00:10;;;;;;;43.27;23.70;;;2.70;99.90;;;;;;5067170;28;20693;-77
2021/01/01 10:02:37;;;;;;;47.20;24.07;;;2.70;99.90;;;;;;5077322;28;20233;-76
2021/01/01 10:05:04;;;;;;;46.77;24.73;;;2.60;99.90;;;;;;5081715;28;20213;-74
2021/01/01 10:07:31;;;;;;;45.93;23.37;;;2.50;99.90;;;;;;5077649;28;20741;-78
2021/01/01 10:09:58;;;;;;;46.43;23.87;;;2.50;99.90;;;;;;5076219;28;20323;-79
2021/01/01 10:12:28;;;;;;;46.40;22.80;;;2.50;99.90;;;;;;5070109;28;20308;-78
2021/01/01 10:14:54;;;;;;;41.43;21.93;;;2.40;99.90;;;;;;5080389;28;20284;-76
2021/01/01 10:17:22;;;;;;;44.87;23.17;;;2.50;99.90;;;;;;5076083;28;20259;-76
2021/01/01 10:19:50;;;;;;;42.93;22.23;;;2.50;99.90;;;;;;5075833;28;20394;-75
2021/01/01 10:22:18;;;;;;;41.77;21.80;;;2.60;99.90;;;;;;5065949;28;20232;-76
2021/01/01 10:24:47;;;;;;;43.47;22.13;;;2.50;99.90;;;;;;5072762;28;20229;-78
2021/01/01 10:27:14;;;;;;;39.57;21.07;;;2.50;99.90;;;;;;5071728;28;20268;-78
2021/01/01 10:29:41;;;;;;;39.47;20.03;;;2.50;99.90;;;;;;5074235;28;20295;-78
2021/01/01 10:32:09;;;;;;;38.30;19.70;;;2.50;99.90;;;;;;5079270;28;20210;-78
2021/01/01 10:34:36;;;;;;;35.83;18.57;;;2.50;99.90;;;;;;5084128;28;20240;-78
2021/01/01 10:37:02;;;;;;;35.73;18.73;;;2.50;99.90;;;;;;5079126;28;20622;-81
2021/01/01 10:39:28;;;;;;;35.13;18.20;;;2.50;99.90;;;;;;5080756;28;20205;-76
2021/01/01 10:41:56;;;;;;;37.00;17.47;;;2.50;99.90;;;;;;5067127;28;20201;-78
2021/01/01 10:44:23;;;;;;;26.47;14.37;;;2.40;99.90;;;;;;5063378;28;20215;-74
2021/01/01 10:46:52;;;;;;;31.03;16.30;;;2.40;99.90;;;;;;5075983;28;20232;-77
2021/01/01 10:49:21;;;;;;;29.80;16.03;;;2.40;99.90;;;;;;5074480;28;20201;-77
2021/01/01 10:51:47;;;;;;;29.93;15.20;;;2.40;99.90;;;;;;5078721;28;20296;-77
2021/01/01 10:54:13;;;;;;;31.73;16.30;;;2.30;99.90;;;;;;5075214;28;20201;-76
2021/01/01 10:56:40;;;;;;;32.50;16.57;;;2.30;99.90;;;;;;5075844;28;20312;-74
2021/01/01 10:59:08;;;;;;;30.53;14.87;;;2.30;99.90;;;;;;5075354;28;20202;-77
2021/01/01 11:01:34;;;;;;;31.20;15.60;;;2.30;99.90;;;;;;5075972;28;20288;-76
2021/01/01 11:04:01;;;;;;;28.93;15.37;;;2.30;99.90;;;;;;5075797;28;20288;-76
2021/01/01 11:06:27;;;;;;;33.23;16.10;;;2.30;99.90;;;;;;5073758;28;20279;-75
2021/01/01 11:08:53;;;;;;;28.30;15.30;;;2.30;99.90;;;;;;5077015;28;20236;-76
2021/01/01 11:11:22;;;;;;;31.10;15.67;;;2.30;99.90;;;;;;5075357;28;20251;-77
2021/01/01 11:13:51;;;;;;;29.37;16.37;;;2.30;99.90;;;;;;5076296;28;20229;-78
2021/01/01 12:22:45;;;;;;;29.70;15.30;;;2.20;99.90;;;;;;5070616;28;20193;-76
2021/01/01 12:25:13;;;;;;;28.10;14.70;;;2.20;99.90;;;;;;5070243;28;20726;-73
2021/01/01 12:27:40;;;;;;;23.17;13.37;;;2.30;99.90;;;;;;5072194;28;20227;-74
2021/01/01 12:30:08;;;;;;;24.00;12.50;;;2.30;99.90;;;;;;5069411;28;20203;-74
2021/01/01 12:32:36;;;;;;;23.60;11.90;;;2.20;99.90;;;;;;5070151;28;20288;-73
2021/01/01 12:35:03;;;;;;;30.20;12.80;;;2.10;99.90;;;;;;5069111;28;20726;-76
2021/01/01 12:37:30;;;;;;;25.10;12.57;;;2.20;99.90;;;;;;5070706;28;20208;-74
2021/01/01 12:39:57;;;;;;;24.00;12.13;;;2.10;99.90;;;;;;5068645;28;20202;-74
2021/01/01 12:42:24;;;;;;;25.07;12.07;;;2.10;99.90;;;;;;5074187;28;20220;-75
2021/01/01 12:44:50;;;;;;;23.50;12.07;;;2.10;99.90;;;;;;5071376;28;20205;-75
2021/01/01 12:47:17;;;;;;;25.07;12.93;;;2.10;99.90;;;;;;5071344;28;20213;-75
2021/01/01 12:49:45;;;;;;;21.80;11.80;;;2.10;99.90;;;;;;5069804;28;20702;-75
2021/01/01 12:52:11;;;;;;;28.80;14.63;;;2.10;99.90;;;;;;5071008;28;20305;-73
2021/01/01 12:54:38;;;;;;;27.27;13.30;;;2.10;99.90;;;;;;5071687;28;20208;-76
2021/01/01 12:57:05;;;;;;;26.73;13.60;;;2.10;99.90;;;;;;5072535;28;20280;-74
2021/01/01 12:59:32;;;;;;;23.50;12.50;;;2.10;99.90;;;;;;5071205;28;20209;-74
2021/01/01 13:01:59;;;;;;;25.23;12.67;;;2.10;99.90;;;;;;5066081;28;20213;-73
2021/01/01 13:04:25;;;;;;;25.00;12.57;;;2.10;99.90;;;;;;5068929;28;20219;-75
2021/01/01 13:06:53;;;;;;;27.50;13.67;;;2.10;99.90;;;;;;5071767;28;20248;-77
2021/01/01 13:09:19;;;;;;;27.23;12.80;;;2.20;99.90;;;;;;5071103;28;20231;-76
2021/01/01 13:11:46;;;;;;;26.00;13.27;;;2.20;99.90;;;;;;5068378;28;20354;-75
2021/01/01 13:14:15;;;;;;;25.33;12.83;;;2.20;99.90;;;;;;5071838;28;20302;-73
2021/01/01 13:16:43;;;;;;;24.33;13.70;;;2.10;99.90;;;;;;5072649;28;20621;-73
2021/01/01 13:19:11;;;;;;;26.80;13.03;;;2.20;99.90;;;;;;5071974;28;20216;-73
2021/01/01 13:21:40;;;;;;;27.00;12.80;;;2.10;99.90;;;;;;5071381;28;20236;-76
2021/01/01 13:24:07;;;;;;;25.73;12.30;;;2.20;99.90;;;;;;5069802;28;20232;-73
2021/01/01 13:26:34;;;;;;;24.40;12.73;;;2.10;99.90;;;;;;5072443;28;20330;-74
2021/01/01 13:29:03;;;;;;;27.00;13.40;;;2.10;99.90;;;;;;5075100;28;20208;-74
2021/01/01 13:31:35;;;;;;;24.17;12.27;;;2.10;99.90;;;;;;5074638;28;20209;-74
2021/01/01 13:34:02;;;;;;;25.80;13.40;;;2.10;99.90;;;;;;5074064;28;20240;-74
2021/01/01 13:36:28;;;;;;;25.23;12.67;;;2.10;99.90;;;;;;5074583;28;20300;-74
2021/01/01 13:38:55;;;;;;;23.33;11.57;;;2.10;99.90;;;;;;5079064;28;20197;-74
2021/01/01 13:41:21;;;;;;;25.27;12.80;;;2.10;99.90;;;;;;5078729;28;20622;-74
2021/01/01 13:43:48;;;;;;;29.83;13.67;;;1.90;99.90;;;;;;5077904;28;20352;-74
2021/01/01 13:46:20;;;;;;;22.43;11.07;;;1.90;99.90;;;;;;5077560;28;20299;-73